Time;durP1;ratioP1;P1;durP2;ratioP2;P2;SDS_P1;SDS_P2;PMS_P1;PMS_P2;Temp;Humidity;BMP_temperature;BMP_pressure;BME280_temperature;BME280_humidity;BME280_pressure;Samples;Min_cycle;Max_cycle;Signal;HPM_P1;HPM_P2
2021/05/03 00:02:13;;;;;;;7.72;6.30;;;7.00;80.10;;;;;;5072916;28;20224;-75
2021/05/03 00:04:40;;;;;;;8.32;7.35;;;7.00;80.30;;;;;;5092969;28;20276;-76
2021/05/03 00:07:07;;;;;;;7.63;5.30;;;7.10;80.30;;;;;;5092628;28;20197;-76
2021/05/03 00:09:34;;;;;;;8.07;6.05;;;7.20;80.40;;;;;;5072161;28;20252;-76
2021/05/03 00:12:01;;;;;;;9.40;6.45;;;7.20;80.10;;;;;;5072666;28;20200;-76
2021/05/03 00:14:28;;;;;;;7.80;6.63;;;7.30;80.20;;;;;;5091205;28;20265;-76
2021/05/03 00:16:56;;;;;;;7.53;5.78;;;7.40;79.20;;;;;;5092967;28;20189;-76
2021/05/03 00:19:23;;;;;;;8.23;6.00;;;7.30;78.90;;;;;;5074548;28;20190;-76
2021/05/03 00:21:50;;;;;;;8.45;6.07;;;7.30;78.50;;;;;;5072757;28;20569;-76
2021/05/03 00:24:17;;;;;;;7.70;6.10;;;7.30;79.00;;;;;;5089155;28;20555;-76
2021/05/03 00:26:44;;;;;;;6.95;5.13;;;7.30;78.70;;;;;;5092366;28;20193;-76
2021/05/03 00:29:11;;;;;;;7.30;5.82;;;7.30;78.80;;;;;;5076263;28;20217;-76
2021/05/03 00:31:38;;;;;;;7.55;6.38;;;7.30;78.80;;;;;;5072536;28;20198;-76
2021/05/03 00:34:05;;;;;;;8.55;7.15;;;7.30;79.50;;;;;;5087231;28;20209;-76
2021/05/03 00:36:33;;;;;;;8.70;6.20;;;7.20;79.40;;;;;;5092627;28;20192;-76
2021/05/03 00:39:00;;;;;;;7.25;6.20;;;7.30;79.10;;;;;;5078133;28;20204;-76
2021/05/03 00:41:27;;;;;;;7.53;6.72;;;7.30;79.60;;;;;;5073541;28;20225;-76
2021/05/03 00:43:56;;;;;;;7.13;5.72;;;7.30;78.80;;;;;;5078869;28;20235;-77
2021/05/03 00:46:24;;;;;;;9.25;6.97;;;7.30;79.30;;;;;;5073175;28;20193;-77
2021/05/03 00:48:52;;;;;;;7.90;6.28;;;7.40;79.00;;;;;;5092640;28;20213;-76
2021/05/03 00:51:19;;;;;;;8.25;7.07;;;7.30;78.60;;;;;;5092039;28;20413;-76
2021/05/03 00:53:50;;;;;;;9.32;6.72;;;7.40;78.10;;;;;;5084282;28;20189;-76
2021/05/03 00:56:17;;;;;;;9.20;6.55;;;7.30;78.50;;;;;;5091962;28;20192;-76
2021/05/03 00:58:45;;;;;;;9.07;6.90;;;7.30;79.20;;;;;;5072387;28;20186;-76
2021/05/03 01:01:12;;;;;;;8.00;6.43;;;7.30;79.20;;;;;;5071984;28;20197;-76
2021/05/03 01:03:39;;;;;;;8.35;7.30;;;7.30;79.00;;;;;;5075100;28;20192;-76
2021/05/03 01:06:06;;;;;;;7.85;6.18;;;7.40;79.10;;;;;;5076222;28;20244;-76
2021/05/03 01:08:33;;;;;;;9.73;6.75;;;7.40;78.20;;;;;;5092575;28;20629;-76
2021/05/03 01:11:01;;;;;;;9.85;6.97;;;7.40;78.30;;;;;;5096629;28;20197;-76
2021/05/03 01:13:33;;;;;;;9.80;7.50;;;7.40;78.80;;;;;;5080094;28;20250;-76
2021/05/03 01:16:00;;;;;;;9.82;6.82;;;7.40;78.70;;;;;;5076293;28;20182;-76
2021/05/03 01:18:29;;;;;;;10.35;6.68;;;7.50;78.60;;;;;;5090660;28;20189;-75
2021/05/03 01:20:57;;;;;;;12.30;6.95;;;7.50;78.40;;;;;;5096240;28;20193;-76
2021/05/03 01:23:24;;;;;;;7.40;6.35;;;7.60;78.10;;;;;;5081170;28;20225;-76
2021/05/03 01:25:51;;;;;;;10.07;7.40;;;7.70;77.70;;;;;;5076780;28;20526;-77
2021/05/03 01:28:21;;;;;;;9.98;7.25;;;7.80;76.40;;;;;;5088713;28;20212;-76
2021/05/03 01:30:48;;;;;;;7.93;6.50;;;7.70;76.70;;;;;;5095897;28;20196;-76
2021/05/03 01:33:18;;;;;;;8.73;7.15;;;7.70;77.40;;;;;;5083401;28;20250;-77
2021/05/03 01:35:47;;;;;;;10.20;7.60;;;7.80;77.70;;;;;;5076860;28;20289;-76
2021/05/03 01:38:17;;;;;;;7.75;6.95;;;7.80;77.60;;;;;;5075945;28;20545;-76
2021/05/03 01:40:46;;;;;;;7.38;6.63;;;7.80;77.60;;;;;;5085640;28;20200;-76
2021/05/03 01:43:16;;;;;;;10.63;7.25;;;7.90;77.60;;;;;;5095938;28;20197;-76
2021/05/03 01:45:44;;;;;;;9.57;7.60;;;7.90;77.60;;;;;;5084553;28;20217;-76
2021/05/03 01:48:15;;;;;;;10.80;8.57;;;7.90;77.30;;;;;;5075437;28;20217;-76
2021/05/03 01:50:42;;;;;;;8.05;7.05;;;7.90;77.30;;;;;;5085245;28;20241;-76
2021/05/03 01:53:09;;;;;;;8.85;6.88;;;7.90;77.60;;;;;;5095475;28;20193;-76
2021/05/03 01:55:38;;;;;;;8.77;7.97;;;7.90;77.60;;;;;;5085294;28;20644;-77
2021/05/03 01:58:07;;;;;;;11.07;7.55;;;8.00;77.80;;;;;;5075419;28;20537;-76
2021/05/03 02:00:35;;;;;;;9.68;7.50;;;8.00;77.50;;;;;;5083725;28;20196;-76
2021/05/03 02:03:03;;;;;;;7.35;6.07;;;8.00;77.00;;;;;;5091530;28;20205;-77
2021/05/03 02:05:31;;;;;;;8.32;6.63;;;8.00;77.20;;;;;;5082691;28;20189;-77
2021/05/03 02:08:03;;;;;;;8.35;7.45;;;8.10;77.50;;;;;;5092802;28;20302;-76
2021/05/03 02:10:31;;;;;;;9.65;8.65;;;8.10;77.40;;;;;;5075154;28;20247;-76
2021/05/03 02:13:02;;;;;;;9.40;7.65;;;8.00;76.80;;;;;;5089631;28;20185;-76
2021/05/03 02:15:33;;;;;;;8.02;7.13;;;8.00;76.80;;;;;;5090203;28;20187;-77
2021/05/03 02:18:00;;;;;;;9.15;7.93;;;8.00;76.90;;;;;;5074976;28;20196;-77
2021/05/03 02:20:27;;;;;;;9.43;7.95;;;8.00;77.40;;;;;;5080996;28;20504;-76
2021/05/03 02:22:54;;;;;;;8.32;7.47;;;8.10;77.60;;;;;;5095115;28;20655;-76
2021/05/03 02:25:21;;;;;;;9.02;7.82;;;8.10;77.50;;;;;;5089149;28;20178;-76
2021/05/03 02:27:48;;;;;;;8.15;6.75;;;8.10;77.70;;;;;;5074527;28;20324;-76
2021/05/03 02:30:17;;;;;;;9.55;7.40;;;8.10;77.70;;;;;;5078335;28;20185;-76
2021/05/03 02:32:44;;;;;;;10.85;7.68;;;8.10;77.90;;;;;;5094545;28;20226;-77
2021/05/03 02:35:16;;;;;;;8.57;7.35;;;8.10;77.70;;;;;;5091020;28;20181;-76
2021/05/03 02:37:44;;;;;;;9.35;7.05;;;8.10;77.90;;;;;;5074588;28;20193;-77
2021/05/03 02:40:13;;;;;;;10.63;8.57;;;8.10;77.50;;;;;;5077454;28;20185;-76
2021/05/03 02:42:40;;;;;;;8.60;7.40;;;8.10;77.10;;;;;;5094969;28;20197;-76
2021/05/03 02:45:08;;;;;;;10.00;7.20;;;8.10;77.00;;;;;;5091191;28;20197;-76
2021/05/03 02:47:36;;;;;;;12.38;7.68;;;8.10;76.70;;;;;;5074355;28;20247;-76
2021/05/03 02:50:04;;;;;;;11.57;7.20;;;8.10;76.50;;;;;;5075508;28;20203;-76
2021/05/03 02:52:31;;;;;;;9.07;7.70;;;8.00;77.10;;;;;;5094545;28;20197;-76
2021/05/03 02:54:57;;;;;;;8.68;6.88;;;8.00;77.20;;;;;;5092775;28;20200;-76
2021/05/03 02:57:25;;;;;;;8.77;7.13;;;8.10;77.40;;;;;;5074118;28;20247;-76
2021/05/03 02:59:52;;;;;;;9.32;8.02;;;8.10;77.30;;;;;;5079599;28;20651;-76
2021/05/03 03:02:18;;;;;;;9.27;7.57;;;8.10;77.40;;;;;;5094436;28;20201;-76
2021/05/03 03:04:46;;;;;;;8.73;7.53;;;8.10;77.30;;;;;;5089472;28;20182;-76
2021/05/03 03:07:12;;;;;;;9.18;7.65;;;8.10;77.40;;;;;;5073716;28;20247;-76
2021/05/03 03:09:39;;;;;;;8.45;7.35;;;8.10;77.40;;;;;;5076482;28;20213;-76
2021/05/03 03:12:10;;;;;;;9.10;7.53;;;8.10;77.40;;;;;;5094057;28;20197;-76
2021/05/03 03:14:37;;;;;;;7.53;6.82;;;8.10;77.20;;;;;;5091257;28;20223;-75
2021/05/03 03:17:04;;;;;;;10.35;7.57;;;8.00;76.80;;;;;;5073510;28;20204;-76
2021/05/03 03:19:32;;;;;;;11.75;7.85;;;8.00;77.10;;;;;;5074384;28;20197;-76
2021/05/03 03:21:59;;;;;;;9.30;7.35;;;8.00;76.90;;;;;;5094075;28;20205;-76
2021/05/03 03:24:26;;;;;;;7.82;7.03;;;8.00;76.50;;;;;;5093292;28;20193;-76
2021/05/03 03:26:53;;;;;;;14.52;9.73;;;8.00;76.60;;;;;;5072813;28;20241;-76
2021/05/03 03:29:19;;;;;;;12.15;8.65;;;8.00;76.20;;;;;;5073531;28;20225;-77
2021/05/03 03:31:46;;;;;;;9.60;8.15;;;7.90;76.60;;;;;;5092455;28;20189;-76
2021/05/03 03:34:13;;;;;;;7.95;7.10;;;7.90;76.50;;;;;;5093792;28;20204;-76
2021/05/03 03:36:40;;;;;;;9.90;8.85;;;7.90;76.40;;;;;;5074388;28;20198;-76
2021/05/03 03:39:09;;;;;;;8.07;7.25;;;7.90;75.90;;;;;;5073277;28;20186;-76
2021/05/03 03:41:36;;;;;;;7.70;6.88;;;7.80;76.00;;;;;;5090252;28;20670;-76
2021/05/03 03:44:04;;;;;;;9.43;8.45;;;7.80;76.00;;;;;;5093357;28;20655;-76
2021/05/03 03:46:32;;;;;;;10.95;6.80;;;7.80;76.60;;;;;;5074906;28;20185;-76
2021/05/03 03:48:59;;;;;;;10.65;7.90;;;7.80;75.90;;;;;;5072914;28;20226;-77
2021/05/03 03:51:27;;;;;;;9.50;8.50;;;7.70;76.40;;;;;;5090313;28;20196;-76
2021/05/03 03:53:54;;;;;;;8.73;7.00;;;7.60;76.10;;;;;;5093492;28;20185;-76
2021/05/03 03:56:23;;;;;;;9.57;7.70;;;7.40;76.10;;;;;;5075293;28;20232;-76
2021/05/03 03:59:02;;;;;;;8.98;7.88;;;7.40;76.60;;;;;;5073229;28;20200;-76
2021/05/03 04:01:31;;;;;;;7.95;6.93;;;7.30;76.70;;;;;;5091101;28;20246;-76
2021/05/03 04:04:02;;;;;;;8.40;7.15;;;7.30;77.20;;;;;;5093183;28;20204;-76
2021/05/03 04:06:40;;;;;;;8.18;7.38;;;7.30;77.80;;;;;;5074354;28;20273;-77
2021/05/03 04:09:10;;;;;;;8.02;6.70;;;7.30;78.30;;;;;;5073338;28;20221;-76
2021/05/03 04:22:58;;;;;;;9.48;7.38;;;7.00;78.50;;;;;;5092726;28;20188;-76
2021/05/03 04:25:30;;;;;;;10.57;7.13;;;7.00;79.10;;;;;;5083889;28;20269;-76
2021/05/03 04:27:58;;;;;;;8.57;7.07;;;7.00;79.30;;;;;;5073282;28;20212;-76
2021/05/03 04:30:25;;;;;;;7.50;6.53;;;7.00;79.40;;;;;;5073547;28;20247;-76
2021/05/03 04:32:52;;;;;;;8.57;6.90;;;6.90;78.60;;;;;;5072895;28;20246;-76
2021/05/03 04:35:19;;;;;;;8.32;6.63;;;6.90;78.80;;;;;;5081359;28;20341;-76
2021/05/03 04:37:46;;;;;;;8.35;6.90;;;6.80;79.00;;;;;;5092632;28;20272;-76
2021/05/03 04:40:13;;;;;;;10.15;7.50;;;6.80;79.10;;;;;;5085104;28;20197;-76
2021/05/03 04:42:40;;;;;;;8.88;7.72;;;6.90;79.10;;;;;;5072529;28;20235;-75
2021/05/03 04:45:11;;;;;;;15.15;7.68;;;7.00;79.00;;;;;;5084691;28;20250;-75
2021/05/03 04:47:38;;;;;;;9.57;6.65;;;7.00;79.10;;;;;;5088252;28;20226;-80
2021/05/03 04:50:09;;;;;;;11.30;7.00;;;7.00;78.40;;;;;;5090712;28;20193;-79
2021/05/03 04:52:36;;;;;;;8.38;7.40;;;7.10;78.50;;;;;;5092778;28;20655;-71
2021/05/03 04:55:04;;;;;;;9.05;7.10;;;7.20;78.60;;;;;;5081567;28;20666;-75
2021/05/03 04:57:31;;;;;;;9.60;7.35;;;7.20;78.40;;;;;;5072539;28;20224;-73
2021/05/03 05:00:01;;;;;;;7.78;6.75;;;7.30;78.60;;;;;;5081831;28;20280;-73
2021/05/03 05:02:31;;;;;;;8.23;6.95;;;7.30;77.60;;;;;;5092816;28;20603;-76
2021/05/03 05:05:00;;;;;;;7.80;6.57;;;7.40;77.40;;;;;;5083113;28;20212;-72
2021/05/03 05:07:26;;;;;;;7.82;7.00;;;7.40;77.90;;;;;;5072489;28;20193;-71
2021/05/03 05:09:53;;;;;;;9.60;7.57;;;7.50;77.70;;;;;;5072835;28;20225;-71
2021/05/03 05:12:20;;;;;;;7.80;6.80;;;7.50;77.40;;;;;;5072197;28;20585;-71
2021/05/03 05:14:46;;;;;;;8.73;7.25;;;7.50;77.10;;;;;;5089944;28;20189;-71
2021/05/03 05:17:13;;;;;;;11.00;7.65;;;7.50;77.80;;;;;;5092366;28;20199;-71
2021/05/03 05:19:41;;;;;;;10.18;6.68;;;7.60;77.90;;;;;;5074771;28;20193;-71
2021/05/03 05:22:08;;;;;;;11.90;7.22;;;7.60;78.00;;;;;;5072082;28;20201;-71
2021/05/03 05:24:36;;;;;;;10.38;7.53;;;7.70;77.90;;;;;;5087612;28;20197;-71
2021/05/03 05:27:03;;;;;;;10.00;7.03;;;7.80;77.50;;;;;;5092413;28;20568;-72
2021/05/03 05:29:30;;;;;;;10.27;7.32;;;7.90;77.60;;;;;;5079989;28;20217;-73
2021/05/03 05:31:57;;;;;;;9.60;6.60;;;8.00;76.90;;;;;;5089410;28;20201;-71
2021/05/03 05:34:29;;;;;;;9.23;7.72;;;8.10;77.10;;;;;;5076999;28;20190;-71
2021/05/03 05:36:56;;;;;;;8.73;7.45;;;8.30;77.60;;;;;;5071487;28;20250;-72
2021/05/03 05:39:23;;;;;;;8.95;6.45;;;8.40;76.20;;;;;;5071018;28;20565;-74
2021/05/03 05:41:50;;;;;;;7.65;5.90;;;8.50;75.50;;;;;;5071588;28;20229;-72
2021/05/03 05:44:16;;;;;;;8.57;6.72;;;8.60;74.30;;;;;;5070939;28;20186;-72
2021/05/03 05:46:44;;;;;;;7.95;6.93;;;8.70;73.50;;;;;;5085544;28;20189;-72
2021/05/03 05:49:11;;;;;;;13.88;10.05;;;8.70;72.90;;;;;;5089584;28;20722;-72
2021/05/03 05:51:39;;;;;;;13.75;10.55;;;8.80;72.60;;;;;;5085026;28;20197;-72
2021/05/03 05:54:06;;;;;;;9.32;8.18;;;8.80;73.10;;;;;;5074738;28;20189;-73
2021/05/03 05:56:33;;;;;;;7.90;6.35;;;9.00;73.60;;;;;;5074227;28;20241;-72
2021/05/03 05:59:00;;;;;;;6.68;5.65;;;9.10;72.80;;;;;;5075088;28;20193;-72
2021/05/03 06:01:29;;;;;;;7.68;5.85;;;9.20;71.70;;;;;;5074747;28;20200;-72
2021/05/03 06:03:59;;;;;;;7.97;6.55;;;9.30;70.80;;;;;;5086764;28;20719;-83
2021/05/03 06:06:26;;;;;;;8.45;6.93;;;9.40;71.00;;;;;;5075162;28;20190;-78
2021/05/03 06:08:53;;;;;;;8.23;6.57;;;9.50;71.20;;;;;;5074835;28;20286;-83
2021/05/03 06:11:20;;;;;;;8.10;6.00;;;9.80;71.00;;;;;;5081685;28;20580;-73
2021/05/03 06:13:47;;;;;;;8.65;7.57;;;10.00;68.90;;;;;;5076088;28;20220;-72
2021/05/03 06:16:14;;;;;;;7.25;6.55;;;10.20;67.20;;;;;;5073571;28;20192;-72
2021/05/03 06:18:41;;;;;;;7.63;6.45;;;10.30;65.70;;;;;;5072479;28;20219;-72
2021/05/03 06:21:07;;;;;;;7.60;6.80;;;10.50;66.20;;;;;;5079411;28;20205;-73
2021/05/03 06:23:34;;;;;;;8.80;6.57;;;10.60;65.90;;;;;;5073814;28;20193;-73
2021/05/03 06:26:01;;;;;;;9.23;6.18;;;10.70;64.70;;;;;;5073898;28;20260;-73
2021/05/03 06:28:29;;;;;;;9.13;6.90;;;10.80;63.80;;;;;;5074063;28;20232;-73
2021/05/03 06:30:59;;;;;;;7.57;6.63;;;10.80;62.00;;;;;;5074419;28;20194;-72
2021/05/03 06:33:26;;;;;;;8.15;7.00;;;10.80;61.00;;;;;;5074912;28;20186;-72
2021/05/03 06:35:53;;;;;;;10.80;8.30;;;10.80;61.20;;;;;;5073841;28;20276;-73
2021/05/03 06:38:21;;;;;;;7.68;6.88;;;10.80;61.20;;;;;;5074607;28;20656;-72
2021/05/03 06:40:48;;;;;;;10.68;8.90;;;10.70;59.90;;;;;;5074327;28;20204;-72
2021/05/03 06:43:16;;;;;;;9.35;8.43;;;10.70;60.00;;;;;;5074447;28;20185;-72
2021/05/03 06:45:44;;;;;;;8.48;6.70;;;10.70;60.10;;;;;;5070724;28;20201;-73
2021/05/03 06:48:12;;;;;;;8.27;7.35;;;10.70;60.40;;;;;;5085489;28;20225;-72
2021/05/03 06:50:43;;;;;;;8.93;7.53;;;10.70;62.10;;;;;;5082388;28;20204;-72
2021/05/03 06:53:11;;;;;;;8.13;6.72;;;10.80;61.40;;;;;;5077845;28;20189;-73
2021/05/03 06:55:37;;;;;;;7.88;7.07;;;10.80;61.80;;;;;;5076028;28;20580;-72
2021/05/03 06:58:05;;;;;;;9.40;7.75;;;10.90;61.40;;;;;;5074118;28;20555;-72
2021/05/03 07:00:38;;;;;;;7.88;6.22;;;11.10;61.60;;;;;;5081089;28;20235;-73
2021/05/03 07:03:07;;;;;;;8.10;7.25;;;11.20;61.20;;;;;;5085183;28;20224;-72
2021/05/03 07:05:33;;;;;;;8.68;7.35;;;11.50;60.50;;;;;;5084100;28;20224;-73
2021/05/03 07:08:00;;;;;;;7.72;6.65;;;11.80;59.60;;;;;;5088341;28;20596;-73
2021/05/03 07:10:28;;;;;;;7.93;6.38;;;12.00;58.60;;;;;;5074813;28;20204;-73
2021/05/03 07:12:56;;;;;;;7.63;6.45;;;12.30;58.60;;;;;;5082752;28;20622;-72
2021/05/03 07:15:23;;;;;;;7.38;6.50;;;12.50;56.90;;;;;;5082627;28;20231;-73
2021/05/03 07:17:50;;;;;;;7.85;6.82;;;12.60;56.20;;;;;;5086747;28;20193;-71
2021/05/03 07:20:18;;;;;;;7.25;6.03;;;12.70;56.40;;;;;;5089732;28;20197;-72
2021/05/03 07:22:45;;;;;;;8.55;6.10;;;12.70;54.90;;;;;;5089295;28;20251;-72
2021/05/03 07:25:13;;;;;;;7.18;6.43;;;12.70;54.40;;;;;;5084145;28;20256;-72
2021/05/03 07:27:41;;;;;;;7.32;6.53;;;12.70;55.20;;;;;;5089283;28;20197;-73
2021/05/03 07:30:10;;;;;;;7.35;5.80;;;12.80;54.10;;;;;;5085132;28;20224;-72
2021/05/03 07:32:38;;;;;;;7.05;6.35;;;12.90;54.80;;;;;;5089067;28;20193;-72
2021/05/03 07:35:05;;;;;;;8.15;6.50;;;12.90;54.20;;;;;;5088728;28;20678;-73
2021/05/03 07:37:33;;;;;;;7.32;5.80;;;13.10;54.70;;;;;;5087975;28;20239;-72
2021/05/03 07:40:01;;;;;;;7.55;6.75;;;13.30;54.50;;;;;;5086496;28;20214;-72
2021/05/03 07:42:29;;;;;;;6.68;6.05;;;13.60;52.80;;;;;;5085304;28;20209;-72
2021/05/03 07:44:55;;;;;;;6.80;5.37;;;13.80;52.40;;;;;;5086505;28;20197;-73
2021/05/03 07:47:25;;;;;;;9.17;6.40;;;13.90;51.00;;;;;;5087228;28;20447;-73
2021/05/03 07:49:54;;;;;;;6.23;5.20;;;13.90;49.50;;;;;;5087068;28;20480;-72
2021/05/03 07:52:21;;;;;;;7.43;5.67;;;13.90;48.60;;;;;;5087843;28;20921;-73
2021/05/03 07:54:50;;;;;;;7.00;6.00;;;13.90;49.00;;;;;;5083534;28;20525;-73
2021/05/03 07:57:17;;;;;;;6.23;5.43;;;14.00;49.50;;;;;;5087464;28;20467;-73
2021/05/03 07:59:44;;;;;;;6.97;5.60;;;14.00;47.70;;;;;;5086268;28;20443;-72
2021/05/03 08:02:12;;;;;;;7.27;6.10;;;14.00;48.60;;;;;;5088790;28;20443;-73
2021/05/03 08:04:39;;;;;;;7.07;4.60;;;14.10;48.20;;;;;;5088869;28;20439;-73
2021/05/03 08:07:06;;;;;;;9.77;5.90;;;14.30;48.10;;;;;;5088660;28;20439;-73
2021/05/03 08:09:33;;;;;;;8.63;6.20;;;14.60;47.80;;;;;;5086301;28;20489;-73
2021/05/03 08:12:00;;;;;;;8.30;6.50;;;14.90;47.20;;;;;;5087195;28;20431;-72
2021/05/03 08:14:28;;;;;;;6.63;5.83;;;15.20;47.10;;;;;;5084351;28;20446;-73
2021/05/03 08:17:01;;;;;;;6.30;5.17;;;15.50;47.70;;;;;;5083665;28;20440;-73
2021/05/03 08:19:29;;;;;;;5.73;4.40;;;15.50;44.50;;;;;;5084031;28;20921;-72
2021/05/03 08:21:56;;;;;;;5.53;4.77;;;15.40;43.60;;;;;;5084774;28;20455;-73
2021/05/03 08:24:30;;;;;;;7.50;5.90;;;15.40;42.90;;;;;;5084444;28;20808;-72
2021/05/03 08:27:01;;;;;;;6.47;5.20;;;15.20;41.10;;;;;;5084600;28;20444;-73
2021/05/03 08:29:28;;;;;;;6.00;5.17;;;15.10;42.60;;;;;;5084342;28;21067;-72
2021/05/03 08:31:56;;;;;;;5.93;4.20;;;15.10;43.80;;;;;;5078145;28;20450;-73
2021/05/03 08:34:24;;;;;;;5.37;4.87;;;15.10;44.00;;;;;;5077820;28;20505;-72
2021/05/03 08:36:53;;;;;;;6.30;5.00;;;15.20;44.80;;;;;;5078601;28;20444;-72
2021/05/03 08:39:22;;;;;;;5.23;4.33;;;15.30;44.10;;;;;;5084333;28;20458;-73
2021/05/03 08:41:50;;;;;;;6.40;4.47;;;15.50;44.60;;;;;;5078761;28;20447;-73
2021/05/03 08:44:18;;;;;;;7.60;5.90;;;15.70;43.00;;;;;;5079190;28;20436;-73
2021/05/03 08:46:46;;;;;;;4.40;3.70;;;15.80;42.40;;;;;;5077605;28;20447;-73
2021/05/03 08:49:20;;;;;;;5.10;4.50;;;16.10;44.10;;;;;;5078124;28;20485;-73
2021/05/03 08:51:50;;;;;;;5.27;4.33;;;16.60;44.80;;;;;;5080022;28;20446;-73
2021/05/03 08:54:25;;;;;;;6.60;4.40;;;16.90;41.30;;;;;;5076125;28;20490;-73
2021/05/03 08:56:53;;;;;;;6.17;4.80;;;17.00;40.50;;;;;;5076987;28;20478;-73
2021/05/03 08:59:21;;;;;;;5.30;4.10;;;16.90;38.30;;;;;;5078192;28;20574;-73
2021/05/03 09:01:49;;;;;;;4.87;4.23;;;16.80;39.50;;;;;;5074685;28;20527;-73
2021/05/03 09:04:16;;;;;;;5.00;4.03;;;16.90;40.00;;;;;;5077307;28;20440;-73
2021/05/03 09:07:01;;;;;;;6.40;5.37;;;17.10;41.10;;;;;;5073067;28;20941;-74
2021/05/03 09:09:33;;;;;;;9.33;5.10;;;17.40;40.30;;;;;;5071874;28;20503;-74
2021/05/03 09:12:01;;;;;;;10.00;5.00;;;17.70;40.50;;;;;;5075084;28;20442;-73
2021/05/03 09:14:31;;;;;;;6.47;4.67;;;18.00;38.60;;;;;;5072740;28;20957;-73
2021/05/03 09:16:58;;;;;;;6.17;4.97;;;18.00;36.70;;;;;;5077302;28;20436;-74
2021/05/03 09:19:26;;;;;;;7.80;5.07;;;17.90;35.50;;;;;;5074287;28;20452;-74
2021/05/03 09:21:54;;;;;;;5.23;4.27;;;17.80;35.10;;;;;;5075366;28;20792;-74
2021/05/03 09:24:23;;;;;;;5.43;4.77;;;17.70;33.10;;;;;;5083646;28;20509;-73
2021/05/03 09:27:03;;;;;;;5.63;4.60;;;17.90;33.30;;;;;;5076038;28;20485;-73
2021/05/03 09:29:42;;;;;;;6.57;4.50;;;18.00;33.20;;;;;;5076161;28;21050;-73
2021/05/03 09:32:11;;;;;;;6.50;4.80;;;18.10;32.90;;;;;;5085566;28;20468;-73
2021/05/03 09:34:40;;;;;;;6.43;4.80;;;18.20;32.40;;;;;;5085832;28;20462;-73
2021/05/03 09:37:34;;;;;;;6.63;4.90;;;17.90;31.90;;;;;;5079840;28;20930;-73
2021/05/03 09:40:07;;;;;;;5.60;4.70;;;17.30;33.20;;;;;;5082112;28;20442;-73
2021/05/03 09:42:46;;;;;;;6.17;4.77;;;16.70;35.10;;;;;;5093346;28;20768;-73
2021/05/03 09:45:16;;;;;;;7.40;4.87;;;16.10;36.60;;;;;;5088468;28;20444;-72
2021/05/03 09:47:43;;;;;;;7.13;6.17;;;15.70;38.00;;;;;;5093425;28;20438;-72
2021/05/03 09:50:13;;;;;;;8.93;5.50;;;15.30;39.30;;;;;;5095392;28;20946;-72
2021/05/03 09:52:40;;;;;;;7.10;5.47;;;15.00;40.30;;;;;;5096205;28;20435;-72
2021/05/03 09:55:32;;;;;;;5.07;4.23;;;14.90;40.90;;;;;;5095719;28;20517;-73
2021/05/03 09:58:13;;;;;;;6.00;4.97;;;15.00;42.30;;;;;;5075572;28;20466;-73
2021/05/03 10:00:42;;;;;;;4.80;4.30;;;15.30;44.10;;;;;;5079015;28;20439;-72
2021/05/03 10:03:32;;;;;;;5.17;4.23;;;15.60;43.50;;;;;;5095849;28;20482;-72
2021/05/03 10:06:00;;;;;;;4.50;4.03;;;15.50;41.40;;;;;;5079683;28;20471;-72
2021/05/03 10:08:27;;;;;;;4.53;4.10;;;15.60;41.00;;;;;;5075813;28;20439;-73
2021/05/03 10:10:57;;;;;;;6.23;5.53;;;16.00;42.70;;;;;;5085282;28;20447;-72
2021/05/03 10:13:24;;;;;;;5.90;5.33;;;16.40;43.50;;;;;;5091529;28;20481;-72
2021/05/03 10:15:56;;;;;;;6.13;4.50;;;16.70;40.10;;;;;;5088102;28;20477;-73
2021/05/03 10:18:28;;;;;;;4.90;4.40;;;16.80;39.00;;;;;;5088493;28;20517;-73
2021/05/03 10:20:56;;;;;;;4.97;4.50;;;17.00;39.10;;;;;;5090977;28;20442;-72
2021/05/03 10:23:25;;;;;;;5.10;4.60;;;17.30;41.00;;;;;;5088016;28;20459;-72
2021/05/03 10:25:58;;;;;;;4.80;4.33;;;17.50;39.10;;;;;;5090697;28;20479;-72
2021/05/03 10:28:26;;;;;;;5.47;3.87;;;17.50;38.70;;;;;;5090303;28;20814;-72
2021/05/03 10:30:57;;;;;;;5.40;4.30;;;17.50;38.00;;;;;;5086586;28;20440;-72
2021/05/03 10:33:34;;;;;;;4.53;4.00;;;17.50;38.80;;;;;;5090391;28;20933;-73
2021/05/03 10:36:01;;;;;;;7.17;4.10;;;17.30;36.80;;;;;;5085912;28;20793;-73
2021/05/03 10:38:37;;;;;;;4.50;3.80;;;17.00;35.50;;;;;;5087710;28;20443;-73
2021/05/03 10:41:20;;;;;;;4.40;3.40;;;16.80;35.80;;;;;;5092513;28;20435;-73
2021/05/03 10:43:46;;;;;;;4.07;3.40;;;16.60;34.80;;;;;;5094849;28;20460;-73
2021/05/03 10:49:46;;;;;;;5.80;2.93;;;16.30;35.30;;;;;;5074556;28;20590;-73
2021/05/03 10:52:16;;;;;;;4.87;2.63;;;16.30;35.10;;;;;;5074718;28;20797;-72
2021/05/03 10:54:48;;;;;;;5.97;3.60;;;16.40;34.90;;;;;;5078937;28;20824;-72
2021/05/03 10:57:36;;;;;;;4.67;3.97;;;16.70;35.20;;;;;;5094597;28;20502;-72
2021/05/03 11:00:10;;;;;;;4.63;3.80;;;17.10;34.20;;;;;;5083869;28;20787;-73
2021/05/03 11:02:45;;;;;;;11.17;3.80;;;17.50;35.50;;;;;;5080672;28;20439;-74
2021/05/03 11:05:18;;;;;;;5.80;3.83;;;17.90;34.20;;;;;;5093449;28;20488;-73
2021/05/03 11:08:30;;;;;;;7.60;3.63;;;18.20;33.60;;;;;;5074395;28;20940;-73
2021/05/03 11:11:08;;;;;;;4.30;3.57;;;18.40;34.10;;;;;;5078181;28;20436;-74
2021/05/03 11:13:44;;;;;;;6.87;3.10;;;18.60;33.90;;;;;;5073819;28;20446;-73
2021/05/03 11:16:59;;;;;;;4.97;3.30;;;18.80;33.90;;;;;;5090498;28;20937;-73
2021/05/03 11:19:46;;;;;;;4.03;3.30;;;19.00;33.60;;;;;;5091518;28;20450;-73
2021/05/03 11:22:17;;;;;;;4.87;3.60;;;19.40;35.00;;;;;;5074003;28;20472;-73
2021/05/03 11:24:48;;;;;;;4.57;3.67;;;19.40;33.10;;;;;;5074930;28;20450;-73
2021/05/03 11:27:18;;;;;;;3.53;2.90;;;19.30;31.50;;;;;;5073228;28;20490;-73
2021/05/03 11:29:48;;;;;;;4.57;3.30;;;19.30;31.30;;;;;;5076169;28;20482;-77
2021/05/03 11:32:15;;;;;;;3.43;2.50;;;19.30;32.20;;;;;;5073124;28;20459;-72
2021/05/03 11:34:54;;;;;;;3.63;2.90;;;19.40;30.80;;;;;;5079831;28;20443;-73
2021/05/03 11:37:30;;;;;;;3.50;2.97;;;19.50;29.00;;;;;;5073483;28;20982;-72
2021/05/03 11:40:03;;;;;;;4.10;2.70;;;19.30;30.50;;;;;;5085168;28;20841;-74
2021/05/03 11:45:39;;;;;;;3.87;2.90;;;19.40;33.70;;;;;;5073125;28;20432;-73
2021/05/03 11:48:06;;;;;;;6.53;3.77;;;19.40;32.40;;;;;;5072681;28;20846;-73
2021/05/03 11:50:34;;;;;;;3.17;2.67;;;19.20;29.90;;;;;;5073742;28;20484;-73
2021/05/03 11:53:01;;;;;;;5.07;3.53;;;19.00;31.00;;;;;;5073368;28;20443;-73
2021/05/03 11:55:28;;;;;;;4.40;3.30;;;18.80;32.70;;;;;;5073921;28;20519;-73
2021/05/03 11:57:57;;;;;;;4.00;2.60;;;18.90;33.00;;;;;;5074822;28;20463;-73
2021/05/03 12:00:29;;;;;;;3.07;2.53;;;19.00;28.40;;;;;;5072913;28;20432;-73
2021/05/03 12:03:11;;;;;;;3.77;3.33;;;19.00;28.50;;;;;;5072815;28;20574;-73
2021/05/03 12:05:39;;;;;;;3.60;2.63;;;19.00;29.30;;;;;;5084900;28;20909;-73
2021/05/03 12:08:13;;;;;;;5.23;2.63;;;19.00;29.60;;;;;;5076777;28;20432;-73
2021/05/03 12:10:39;;;;;;;3.40;2.63;;;19.40;31.40;;;;;;5072996;28;20540;-73
2021/05/03 12:13:12;;;;;;;4.70;2.90;;;19.50;30.50;;;;;;5089777;28;20443;-73
2021/05/03 12:15:39;;;;;;;3.53;2.87;;;19.50;29.90;;;;;;5093196;28;20438;-73
2021/05/03 12:18:05;;;;;;;3.80;3.33;;;19.40;30.20;;;;;;5075776;28;20444;-73
2021/05/03 12:20:33;;;;;;;3.77;2.60;;;19.20;29.10;;;;;;5073077;28;20424;-73
2021/05/03 12:23:05;;;;;;;3.60;2.00;;;19.10;30.50;;;;;;5088548;28;20438;-73
2021/05/03 12:25:40;;;;;;;3.63;2.53;;;19.00;30.30;;;;;;5093342;28;20490;-73
2021/05/03 12:28:11;;;;;;;3.87;2.60;;;18.90;29.80;;;;;;5071610;28;20450;-74
2021/05/03 12:30:38;;;;;;;3.23;2.50;;;18.70;29.50;;;;;;5089836;28;20555;-73
2021/05/03 12:33:08;;;;;;;6.50;2.77;;;18.60;29.20;;;;;;5078357;28;20435;-73
2021/05/03 12:35:37;;;;;;;3.87;2.10;;;18.50;29.40;;;;;;5072260;28;20886;-73
2021/05/03 12:38:16;;;;;;;3.80;2.23;;;18.50;29.80;;;;;;5072428;28;20801;-73
2021/05/03 12:40:43;;;;;;;2.87;1.93;;;18.50;30.00;;;;;;5072009;28;20527;-73
2021/05/03 12:43:12;;;;;;;3.20;2.07;;;18.60;29.80;;;;;;5084802;28;20431;-73
2021/05/03 12:45:51;;;;;;;2.60;1.77;;;18.70;30.20;;;;;;5089917;28;20470;-73
2021/05/03 12:48:36;;;;;;;3.47;2.57;;;18.70;28.80;;;;;;5074409;28;20497;-74
2021/05/03 12:54:09;;;;;;;2.70;1.93;;;18.70;28.70;;;;;;5072211;28;20432;-73
2021/05/03 12:56:56;;;;;;;4.00;2.27;;;18.90;30.00;;;;;;5081852;28;20467;-73
2021/05/03 12:59:27;;;;;;;5.03;2.50;;;19.00;29.00;;;;;;5087974;28;20442;-73
2021/05/03 13:02:10;;;;;;;5.50;1.97;;;19.20;29.90;;;;;;5091622;28;20471;-72
2021/05/03 13:04:43;;;;;;;3.20;2.10;;;19.30;28.60;;;;;;5083722;28;20439;-73
2021/05/03 13:29:41;;;;;;;2.90;2.47;;;18.90;26.90;;;;;;5092432;28;20844;-73
2021/05/03 13:32:09;;;;;;;8.30;2.40;;;18.80;26.70;;;;;;5083074;28;20444;-73
2021/05/03 13:34:36;;;;;;;3.87;2.00;;;18.80;28.60;;;;;;5072100;28;20934;-73
2021/05/03 13:37:03;;;;;;;2.80;1.87;;;18.90;28.40;;;;;;5078094;28;20852;-73
2021/05/03 13:39:29;;;;;;;4.33;2.47;;;19.00;28.30;;;;;;5092061;28;20435;-73
2021/05/03 13:41:57;;;;;;;3.13;2.30;;;19.20;28.80;;;;;;5085078;28;20428;-73
2021/05/03 13:44:24;;;;;;;2.90;2.23;;;19.30;28.20;;;;;;5071772;28;20448;-73
2021/05/03 13:46:50;;;;;;;3.90;2.90;;;19.40;27.40;;;;;;5084396;28;20963;-73